<?xml version="1.0" encoding="UTF-8" standalone="no" ?>
<gpx xmlns="http://www.topografix.com/GPX/1/1" xmlns:xsi="http://www.w3.org/2001/XMLSchema-instance" xsi:schemaLocation="http://www.topografix.com/GPX/1/1 http://www.topografix.com/GPX/1/1/gpx.xsd" version="1.1" creator="VisuGPX - https://www.visugpx.com">
  <metadata>
    <name>Boucle Septème-Moidieu</name>
    <desc><![CDATA[Boucle au départ du château de Septème, puis Chapulay, descente sur la plaine de Moidieu où l'on longe une rivière.
Petite grimpette après Moidieu avant retour.]]></desc>
  </metadata>
  <trk>
    <name><![CDATA[Boucle Septème-Moidieu_1]]></name>
    <trkseg>
      <trkpt lat="45.5521" lon="5.00992">
        <ele>270.575012</ele>
        <time>2017-01-07T13:11:24Z</time>
      </trkpt>
      <trkpt lat="45.55202" lon="5.00978">
        <ele>269.649628</ele>
        <time>2017-01-07T13:11:27Z</time>
      </trkpt>
      <trkpt lat="45.55195" lon="5.00972">
        <ele>269.338989</ele>
        <time>2017-01-07T13:11:29Z</time>
      </trkpt>
      <trkpt lat="45.55156" lon="5.00963">
        <ele>268.965546</ele>
        <time>2017-01-07T13:11:39Z</time>
      </trkpt>
      <trkpt lat="45.55133" lon="5.00966">
        <ele>269.420013</ele>
        <time>2017-01-07T13:11:46Z</time>
      </trkpt>
      <trkpt lat="45.55036" lon="5.01043">
        <ele>277.330139</ele>
        <time>2017-01-07T13:12:20Z</time>
      </trkpt>
      <trkpt lat="45.55006" lon="5.01063">
        <ele>280.528076</ele>
        <time>2017-01-07T13:12:30Z</time>
      </trkpt>
      <trkpt lat="45.54965" lon="5.01087">
        <ele>280.131317</ele>
        <time>2017-01-07T13:12:43Z</time>
      </trkpt>
      <trkpt lat="45.54939" lon="5.01108">
        <ele>283.015747</ele>
        <time>2017-01-07T13:12:52Z</time>
      </trkpt>
      <trkpt lat="45.549" lon="5.01156">
        <ele>283.386871</ele>
        <time>2017-01-07T13:13:08Z</time>
      </trkpt>
      <trkpt lat="45.54886" lon="5.01169">
        <ele>282.213104</ele>
        <time>2017-01-07T13:13:13Z</time>
      </trkpt>
      <trkpt lat="45.54866" lon="5.01194">
        <ele>279.363342</ele>
        <time>2017-01-07T13:13:18Z</time>
      </trkpt>
      <trkpt lat="45.54855" lon="5.01205">
        <ele>278.35025</ele>
        <time>2017-01-07T13:13:20Z</time>
      </trkpt>
      <trkpt lat="45.54791" lon="5.01244">
        <ele>265.031311</ele>
        <time>2017-01-07T13:13:30Z</time>
      </trkpt>
      <trkpt lat="45.54759" lon="5.0126">
        <ele>263.669922</ele>
        <time>2017-01-07T13:13:36Z</time>
      </trkpt>
      <trkpt lat="45.5471" lon="5.01267">
        <ele>259.94339</ele>
        <time>2017-01-07T13:13:45Z</time>
      </trkpt>
      <trkpt lat="45.54665" lon="5.01269">
        <ele>256.433411</ele>
        <time>2017-01-07T13:13:54Z</time>
      </trkpt>
      <trkpt lat="45.54652" lon="5.01272">
        <ele>256.358459</ele>
        <time>2017-01-07T13:13:57Z</time>
      </trkpt>
      <trkpt lat="45.54614" lon="5.01288">
        <ele>257.052368</ele>
        <time>2017-01-07T13:14:07Z</time>
      </trkpt>
      <trkpt lat="45.54597" lon="5.01292">
        <ele>257.104431</ele>
        <time>2017-01-07T13:14:11Z</time>
      </trkpt>
      <trkpt lat="45.54533" lon="5.01297">
        <ele>256.421997</ele>
        <time>2017-01-07T13:14:24Z</time>
      </trkpt>
      <trkpt lat="45.54517" lon="5.01301">
        <ele>257.423737</ele>
        <time>2017-01-07T13:14:27Z</time>
      </trkpt>
      <trkpt lat="45.54434" lon="5.01334">
        <ele>260.80545</ele>
        <time>2017-01-07T13:14:46Z</time>
      </trkpt>
      <trkpt lat="45.54418" lon="5.01343">
        <ele>260.967743</ele>
        <time>2017-01-07T13:14:51Z</time>
      </trkpt>
      <trkpt lat="45.54361" lon="5.01365">
        <ele>260.785217</ele>
        <time>2017-01-07T13:15:07Z</time>
      </trkpt>
      <trkpt lat="45.54339" lon="5.0139">
        <ele>261.929993</ele>
        <time>2017-01-07T13:15:31Z</time>
      </trkpt>
      <trkpt lat="45.54327" lon="5.01407">
        <ele>261.998627</ele>
        <time>2017-01-07T13:15:41Z</time>
      </trkpt>
      <trkpt lat="45.54264" lon="5.0151">
        <ele>267.773834</ele>
        <time>2017-01-07T13:16:28Z</time>
      </trkpt>
      <trkpt lat="45.54245" lon="5.0155">
        <ele>269.581879</ele>
        <time>2017-01-07T13:16:38Z</time>
      </trkpt>
      <trkpt lat="45.54232" lon="5.01572">
        <ele>269.747101</ele>
        <time>2017-01-07T13:16:57Z</time>
      </trkpt>
      <trkpt lat="45.54213" lon="5.01595">
        <ele>266.860992</ele>
        <time>2017-01-07T13:18:13Z</time>
      </trkpt>
      <trkpt lat="45.54198" lon="5.01607">
        <ele>264.86795</ele>
        <time>2017-01-07T13:18:18Z</time>
      </trkpt>
      <trkpt lat="45.54194" lon="5.01613">
        <ele>264.847961</ele>
        <time>2017-01-07T13:18:20Z</time>
      </trkpt>
      <trkpt lat="45.54193" lon="5.01625">
        <ele>265.316864</ele>
        <time>2017-01-07T13:18:23Z</time>
      </trkpt>
      <trkpt lat="45.54196" lon="5.01652">
        <ele>267.101196</ele>
        <time>2017-01-07T13:18:29Z</time>
      </trkpt>
      <trkpt lat="45.54208" lon="5.0169">
        <ele>271.223053</ele>
        <time>2017-01-07T13:18:39Z</time>
      </trkpt>
      <trkpt lat="45.54211" lon="5.01708">
        <ele>272.906494</ele>
        <time>2017-01-07T13:18:43Z</time>
      </trkpt>
      <trkpt lat="45.54213" lon="5.01729">
        <ele>273.608215</ele>
        <time>2017-01-07T13:18:47Z</time>
      </trkpt>
      <trkpt lat="45.54205" lon="5.01821">
        <ele>271.927185</ele>
        <time>2017-01-07T13:19:09Z</time>
      </trkpt>
      <trkpt lat="45.54199" lon="5.0185">
        <ele>271.689423</ele>
        <time>2017-01-07T13:19:15Z</time>
      </trkpt>
      <trkpt lat="45.54186" lon="5.01896">
        <ele>272.857635</ele>
        <time>2017-01-07T13:19:23Z</time>
      </trkpt>
      <trkpt lat="45.54173" lon="5.01927">
        <ele>272.991241</ele>
        <time>2017-01-07T13:19:29Z</time>
      </trkpt>
      <trkpt lat="45.54165" lon="5.01939">
        <ele>272.826263</ele>
        <time>2017-01-07T13:19:32Z</time>
      </trkpt>
      <trkpt lat="45.54142" lon="5.0196">
        <ele>271.767212</ele>
        <time>2017-01-07T13:19:39Z</time>
      </trkpt>
      <trkpt lat="45.54119" lon="5.01986">
        <ele>271.510376</ele>
        <time>2017-01-07T13:19:47Z</time>
      </trkpt>
      <trkpt lat="45.54108" lon="5.02007">
        <ele>272.345001</ele>
        <time>2017-01-07T13:19:53Z</time>
      </trkpt>
      <trkpt lat="45.54078" lon="5.02101">
        <ele>276.690002</ele>
        <time>2017-01-07T13:20:14Z</time>
      </trkpt>
      <trkpt lat="45.5404" lon="5.02177">
        <ele>276.327484</ele>
        <time>2017-01-07T13:20:31Z</time>
      </trkpt>
      <trkpt lat="45.54023" lon="5.02204">
        <ele>274.406952</ele>
        <time>2017-01-07T13:20:37Z</time>
      </trkpt>
      <trkpt lat="45.54014" lon="5.02234">
        <ele>273.896515</ele>
        <time>2017-01-07T13:20:44Z</time>
      </trkpt>
      <trkpt lat="45.54009" lon="5.0224">
        <ele>273.612213</ele>
        <time>2017-01-07T13:20:46Z</time>
      </trkpt>
      <trkpt lat="45.53999" lon="5.02242">
        <ele>274.453461</ele>
        <time>2017-01-07T13:20:49Z</time>
      </trkpt>
      <trkpt lat="45.53988" lon="5.02241">
        <ele>275.009064</ele>
        <time>2017-01-07T13:20:52Z</time>
      </trkpt>
      <trkpt lat="45.53965" lon="5.02249">
        <ele>277.531281</ele>
        <time>2017-01-07T13:21:00Z</time>
      </trkpt>
      <trkpt lat="45.53916" lon="5.02254">
        <ele>281.900269</ele>
        <time>2017-01-07T13:21:22Z</time>
      </trkpt>
      <trkpt lat="45.53897" lon="5.02259">
        <ele>284.005981</ele>
        <time>2017-01-07T13:21:35Z</time>
      </trkpt>
      <trkpt lat="45.53893" lon="5.02262">
        <ele>284.684204</ele>
        <time>2017-01-07T13:21:38Z</time>
      </trkpt>
      <trkpt lat="45.53886" lon="5.02273">
        <ele>286.505524</ele>
        <time>2017-01-07T13:21:44Z</time>
      </trkpt>
      <trkpt lat="45.53885" lon="5.02283">
        <ele>287.878265</ele>
        <time>2017-01-07T13:21:49Z</time>
      </trkpt>
      <trkpt lat="45.53885" lon="5.0231">
        <ele>294.16626</ele>
        <time>2017-01-07T13:22:05Z</time>
      </trkpt>
      <trkpt lat="45.53893" lon="5.02323">
        <ele>297.433746</ele>
        <time>2017-01-07T13:22:13Z</time>
      </trkpt>
      <trkpt lat="45.53903" lon="5.02325">
        <ele>297.727509</ele>
        <time>2017-01-07T13:22:22Z</time>
      </trkpt>
      <trkpt lat="45.53941" lon="5.02343">
        <ele>296.879211</ele>
        <time>2017-01-07T13:22:47Z</time>
      </trkpt>
      <trkpt lat="45.53947" lon="5.02351">
        <ele>297.424011</ele>
        <time>2017-01-07T13:22:51Z</time>
      </trkpt>
      <trkpt lat="45.53956" lon="5.02388">
        <ele>300.596558</ele>
        <time>2017-01-07T13:23:09Z</time>
      </trkpt>
      <trkpt lat="45.53949" lon="5.02442">
        <ele>307.507446</ele>
        <time>2017-01-07T13:23:36Z</time>
      </trkpt>
      <trkpt lat="45.53944" lon="5.02452">
        <ele>309.305084</ele>
        <time>2017-01-07T13:23:42Z</time>
      </trkpt>
      <trkpt lat="45.5394" lon="5.025">
        <ele>310.36499</ele>
        <time>2017-01-07T13:24:09Z</time>
      </trkpt>
      <trkpt lat="45.53927" lon="5.0253">
        <ele>313.318909</ele>
        <time>2017-01-07T13:24:23Z</time>
      </trkpt>
      <trkpt lat="45.53919" lon="5.02541">
        <ele>315.845764</ele>
        <time>2017-01-07T13:24:30Z</time>
      </trkpt>
      <trkpt lat="45.53903" lon="5.02553">
        <ele>320.014099</ele>
        <time>2017-01-07T13:24:40Z</time>
      </trkpt>
      <trkpt lat="45.53886" lon="5.02554">
        <ele>324.277679</ele>
        <time>2017-01-07T13:24:50Z</time>
      </trkpt>
      <trkpt lat="45.5388" lon="5.02552">
        <ele>326.166229</ele>
        <time>2017-01-07T13:24:54Z</time>
      </trkpt>
      <trkpt lat="45.53866" lon="5.02532">
        <ele>330.09375</ele>
        <time>2017-01-07T13:25:08Z</time>
      </trkpt>
      <trkpt lat="45.53859" lon="5.02528">
        <ele>330.872223</ele>
        <time>2017-01-07T13:25:13Z</time>
      </trkpt>
      <trkpt lat="45.53853" lon="5.02527">
        <ele>331.583221</ele>
        <time>2017-01-07T13:25:17Z</time>
      </trkpt>
      <trkpt lat="45.53842" lon="5.02531">
        <ele>333.091766</ele>
        <time>2017-01-07T13:25:25Z</time>
      </trkpt>
      <trkpt lat="45.53816" lon="5.02534">
        <ele>336.241241</ele>
        <time>2017-01-07T13:25:39Z</time>
      </trkpt>
      <trkpt lat="45.53787" lon="5.0253">
        <ele>338.31012</ele>
        <time>2017-01-07T13:25:52Z</time>
      </trkpt>
      <trkpt lat="45.53749" lon="5.02514">
        <ele>339.684998</ele>
        <time>2017-01-07T13:26:06Z</time>
      </trkpt>
      <trkpt lat="45.53737" lon="5.02513">
        <ele>340.464996</ele>
        <time>2017-01-07T13:26:10Z</time>
      </trkpt>
      <trkpt lat="45.5364" lon="5.02537">
        <ele>346.125</ele>
        <time>2017-01-07T13:26:48Z</time>
      </trkpt>
      <trkpt lat="45.53595" lon="5.02539">
        <ele>349.825806</ele>
        <time>2017-01-07T13:27:03Z</time>
      </trkpt>
      <trkpt lat="45.53569" lon="5.02533">
        <ele>352.373322</ele>
        <time>2017-01-07T13:27:11Z</time>
      </trkpt>
      <trkpt lat="45.53542" lon="5.02524">
        <ele>354.418915</ele>
        <time>2017-01-07T13:27:21Z</time>
      </trkpt>
      <trkpt lat="45.53502" lon="5.02518">
        <ele>356.487579</ele>
        <time>2017-01-07T13:27:37Z</time>
      </trkpt>
      <trkpt lat="45.53491" lon="5.02509">
        <ele>357.298248</ele>
        <time>2017-01-07T13:27:42Z</time>
      </trkpt>
      <trkpt lat="45.53466" lon="5.02481">
        <ele>359.97229</ele>
        <time>2017-01-07T13:27:53Z</time>
      </trkpt>
      <trkpt lat="45.53443" lon="5.02458">
        <ele>362.964233</ele>
        <time>2017-01-07T13:28:02Z</time>
      </trkpt>
      <trkpt lat="45.53427" lon="5.02432">
        <ele>364.379791</ele>
        <time>2017-01-07T13:28:09Z</time>
      </trkpt>
      <trkpt lat="45.53412" lon="5.024">
        <ele>366.294952</ele>
        <time>2017-01-07T13:28:20Z</time>
      </trkpt>
      <trkpt lat="45.53402" lon="5.02322">
        <ele>366.154114</ele>
        <time>2017-01-07T13:30:32Z</time>
      </trkpt>
      <trkpt lat="45.534" lon="5.02282">
        <ele>365.681549</ele>
        <time>2017-01-07T13:30:44Z</time>
      </trkpt>
      <trkpt lat="45.53393" lon="5.02255">
        <ele>365.63501</ele>
        <time>2017-01-07T13:30:50Z</time>
      </trkpt>
      <trkpt lat="45.5339" lon="5.02227">
        <ele>364.380005</ele>
        <time>2017-01-07T13:30:55Z</time>
      </trkpt>
      <trkpt lat="45.5339" lon="5.02177">
        <ele>361.38501</ele>
        <time>2017-01-07T13:31:04Z</time>
      </trkpt>
      <trkpt lat="45.53394" lon="5.02154">
        <ele>359.589996</ele>
        <time>2017-01-07T13:31:09Z</time>
      </trkpt>
      <trkpt lat="45.53407" lon="5.02109">
        <ele>356.481384</ele>
        <time>2017-01-07T13:31:22Z</time>
      </trkpt>
      <trkpt lat="45.53407" lon="5.02098">
        <ele>356.325378</ele>
        <time>2017-01-07T13:31:25Z</time>
      </trkpt>
      <trkpt lat="45.53386" lon="5.02056">
        <ele>357.652557</ele>
        <time>2017-01-07T13:31:37Z</time>
      </trkpt>
      <trkpt lat="45.53376" lon="5.02042">
        <ele>358.421692</ele>
        <time>2017-01-07T13:31:41Z</time>
      </trkpt>
      <trkpt lat="45.53373" lon="5.02033">
        <ele>358.581665</ele>
        <time>2017-01-07T13:31:43Z</time>
      </trkpt>
      <trkpt lat="45.53366" lon="5.01999">
        <ele>358.505005</ele>
        <time>2017-01-07T13:31:50Z</time>
      </trkpt>
      <trkpt lat="45.5336" lon="5.01981">
        <ele>358.537506</ele>
        <time>2017-01-07T13:31:54Z</time>
      </trkpt>
      <trkpt lat="45.53349" lon="5.01959">
        <ele>358.875</ele>
        <time>2017-01-07T13:31:59Z</time>
      </trkpt>
      <trkpt lat="45.53339" lon="5.01943">
        <ele>359.42749</ele>
        <time>2017-01-07T13:32:03Z</time>
      </trkpt>
      <trkpt lat="45.53334" lon="5.01928">
        <ele>358.83429</ele>
        <time>2017-01-07T13:32:06Z</time>
      </trkpt>
      <trkpt lat="45.53334" lon="5.01914">
        <ele>357.709717</ele>
        <time>2017-01-07T13:32:08Z</time>
      </trkpt>
      <trkpt lat="45.5334" lon="5.01858">
        <ele>352.17572</ele>
        <time>2017-01-07T13:32:14Z</time>
      </trkpt>
      <trkpt lat="45.5334" lon="5.01839">
        <ele>350.955963</ele>
        <time>2017-01-07T13:32:16Z</time>
      </trkpt>
      <trkpt lat="45.53335" lon="5.01822">
        <ele>350.664612</ele>
        <time>2017-01-07T13:32:18Z</time>
      </trkpt>
      <trkpt lat="45.53328" lon="5.01807">
        <ele>351.144989</ele>
        <time>2017-01-07T13:32:20Z</time>
      </trkpt>
      <trkpt lat="45.53301" lon="5.01763">
        <ele>354.024994</ele>
        <time>2017-01-07T13:32:28Z</time>
      </trkpt>
      <trkpt lat="45.53248" lon="5.01688">
        <ele>357.72937</ele>
        <time>2017-01-07T13:32:45Z</time>
      </trkpt>
      <trkpt lat="45.53217" lon="5.01649">
        <ele>358.213745</ele>
        <time>2017-01-07T13:32:56Z</time>
      </trkpt>
      <trkpt lat="45.53217" lon="5.01642">
        <ele>357.501251</ele>
        <time>2017-01-07T13:32:58Z</time>
      </trkpt>
      <trkpt lat="45.53223" lon="5.01631">
        <ele>355.551239</ele>
        <time>2017-01-07T13:33:01Z</time>
      </trkpt>
      <trkpt lat="45.53235" lon="5.01622">
        <ele>352.904999</ele>
        <time>2017-01-07T13:33:06Z</time>
      </trkpt>
      <trkpt lat="45.53269" lon="5.01586">
        <ele>345.70282</ele>
        <time>2017-01-07T13:33:15Z</time>
      </trkpt>
      <trkpt lat="45.53291" lon="5.01551">
        <ele>341.238037</ele>
        <time>2017-01-07T13:33:21Z</time>
      </trkpt>
      <trkpt lat="45.53296" lon="5.01537">
        <ele>340.936493</ele>
        <time>2017-01-07T13:33:23Z</time>
      </trkpt>
      <trkpt lat="45.53305" lon="5.01476">
        <ele>342.00415</ele>
        <time>2017-01-07T13:33:33Z</time>
      </trkpt>
      <trkpt lat="45.53319" lon="5.01446">
        <ele>342.751495</ele>
        <time>2017-01-07T13:33:43Z</time>
      </trkpt>
      <trkpt lat="45.5332" lon="5.01437">
        <ele>343.282623</ele>
        <time>2017-01-07T13:33:46Z</time>
      </trkpt>
      <trkpt lat="45.5331" lon="5.01389">
        <ele>345.247833</ele>
        <time>2017-01-07T13:33:57Z</time>
      </trkpt>
      <trkpt lat="45.53297" lon="5.01371">
        <ele>345.809753</ele>
        <time>2017-01-07T13:34:03Z</time>
      </trkpt>
      <trkpt lat="45.53296" lon="5.01363">
        <ele>346.00354</ele>
        <time>2017-01-07T13:34:05Z</time>
      </trkpt>
      <trkpt lat="45.53307" lon="5.01328">
        <ele>346.419983</ele>
        <time>2017-01-07T13:34:12Z</time>
      </trkpt>
      <trkpt lat="45.53327" lon="5.01281">
        <ele>347.066101</ele>
        <time>2017-01-07T13:34:24Z</time>
      </trkpt>
      <trkpt lat="45.53351" lon="5.01239">
        <ele>347.635681</ele>
        <time>2017-01-07T13:34:35Z</time>
      </trkpt>
      <trkpt lat="45.53368" lon="5.01216">
        <ele>348.743744</ele>
        <time>2017-01-07T13:34:43Z</time>
      </trkpt>
      <trkpt lat="45.53375" lon="5.01204">
        <ele>349.198761</ele>
        <time>2017-01-07T13:34:46Z</time>
      </trkpt>
      <trkpt lat="45.53381" lon="5.01186">
        <ele>349.733734</ele>
        <time>2017-01-07T13:34:50Z</time>
      </trkpt>
      <trkpt lat="45.53384" lon="5.01168">
        <ele>350.147491</ele>
        <time>2017-01-07T13:34:54Z</time>
      </trkpt>
      <trkpt lat="45.53384" lon="5.01116">
        <ele>350.924988</ele>
        <time>2017-01-07T13:35:05Z</time>
      </trkpt>
      <trkpt lat="45.53373" lon="5.00934">
        <ele>350.502502</ele>
        <time>2017-01-07T13:35:42Z</time>
      </trkpt>
      <trkpt lat="45.53368" lon="5.00776">
        <ele>348.6203</ele>
        <time>2017-01-07T13:36:06Z</time>
      </trkpt>
      <trkpt lat="45.53357" lon="5.00649">
        <ele>348.078674</ele>
        <time>2017-01-07T13:36:25Z</time>
      </trkpt>
      <trkpt lat="45.53347" lon="5.00456">
        <ele>347.26001</ele>
        <time>2017-01-07T13:37:11Z</time>
      </trkpt>
      <trkpt lat="45.53328" lon="5.00348">
        <ele>345.276245</ele>
        <time>2017-01-07T13:37:29Z</time>
      </trkpt>
      <trkpt lat="45.53323" lon="5.00297">
        <ele>344.622498</ele>
        <time>2017-01-07T13:37:37Z</time>
      </trkpt>
      <trkpt lat="45.53319" lon="5.00216">
        <ele>343.503754</ele>
        <time>2017-01-07T13:37:49Z</time>
      </trkpt>
      <trkpt lat="45.5332" lon="5.00181">
        <ele>343.164886</ele>
        <time>2017-01-07T13:37:54Z</time>
      </trkpt>
      <trkpt lat="45.53326" lon="5.00099">
        <ele>341.920013</ele>
        <time>2017-01-07T13:38:05Z</time>
      </trkpt>
      <trkpt lat="45.5332" lon="4.99947">
        <ele>342.650513</ele>
        <time>2017-01-07T13:38:25Z</time>
      </trkpt>
      <trkpt lat="45.53321" lon="4.999">
        <ele>343.070892</ele>
        <time>2017-01-07T13:38:32Z</time>
      </trkpt>
      <trkpt lat="45.53318" lon="4.99886">
        <ele>343.225555</ele>
        <time>2017-01-07T13:38:35Z</time>
      </trkpt>
      <trkpt lat="45.53312" lon="4.99881">
        <ele>343.412933</ele>
        <time>2017-01-07T13:38:37Z</time>
      </trkpt>
      <trkpt lat="45.53219" lon="4.99857">
        <ele>343.076843</ele>
        <time>2017-01-07T13:39:00Z</time>
      </trkpt>
      <trkpt lat="45.53166" lon="4.99838">
        <ele>342.231262</ele>
        <time>2017-01-07T13:39:11Z</time>
      </trkpt>
      <trkpt lat="45.53156" lon="4.99828">
        <ele>341.845001</ele>
        <time>2017-01-07T13:39:14Z</time>
      </trkpt>
      <trkpt lat="45.53151" lon="4.99818">
        <ele>341.559631</ele>
        <time>2017-01-07T13:39:16Z</time>
      </trkpt>
      <trkpt lat="45.53143" lon="4.99787">
        <ele>340.705383</ele>
        <time>2017-01-07T13:39:21Z</time>
      </trkpt>
      <trkpt lat="45.53111" lon="4.99695">
        <ele>340.946564</ele>
        <time>2017-01-07T13:39:39Z</time>
      </trkpt>
      <trkpt lat="45.53096" lon="4.99666">
        <ele>340.630005</ele>
        <time>2017-01-07T13:39:45Z</time>
      </trkpt>
      <trkpt lat="45.53078" lon="4.99638">
        <ele>340.29715</ele>
        <time>2017-01-07T13:39:51Z</time>
      </trkpt>
      <trkpt lat="45.53064" lon="4.99612">
        <ele>340.322205</ele>
        <time>2017-01-07T13:39:56Z</time>
      </trkpt>
      <trkpt lat="45.53057" lon="4.99588">
        <ele>340.358032</ele>
        <time>2017-01-07T13:40:00Z</time>
      </trkpt>
      <trkpt lat="45.53057" lon="4.99567">
        <ele>340.271027</ele>
        <time>2017-01-07T13:40:03Z</time>
      </trkpt>
      <trkpt lat="45.53064" lon="4.99496">
        <ele>338.498169</ele>
        <time>2017-01-07T13:40:12Z</time>
      </trkpt>
      <trkpt lat="45.53077" lon="4.9942">
        <ele>333.663422</ele>
        <time>2017-01-07T13:40:22Z</time>
      </trkpt>
      <trkpt lat="45.53077" lon="4.994">
        <ele>332.247498</ele>
        <time>2017-01-07T13:40:25Z</time>
      </trkpt>
      <trkpt lat="45.53072" lon="4.99378">
        <ele>330.756012</ele>
        <time>2017-01-07T13:40:29Z</time>
      </trkpt>
      <trkpt lat="45.53067" lon="4.99374">
        <ele>330.458801</ele>
        <time>2017-01-07T13:40:32Z</time>
      </trkpt>
      <trkpt lat="45.53056" lon="4.99387">
        <ele>331.70993</ele>
        <time>2017-01-07T13:40:37Z</time>
      </trkpt>
      <trkpt lat="45.53043" lon="4.99398">
        <ele>332.916077</ele>
        <time>2017-01-07T13:40:40Z</time>
      </trkpt>
      <trkpt lat="45.53031" lon="4.99401">
        <ele>333.44342</ele>
        <time>2017-01-07T13:40:42Z</time>
      </trkpt>
      <trkpt lat="45.5302" lon="4.99397">
        <ele>333.172791</ele>
        <time>2017-01-07T13:40:44Z</time>
      </trkpt>
      <trkpt lat="45.52987" lon="4.99358">
        <ele>329.385742</ele>
        <time>2017-01-07T13:40:51Z</time>
      </trkpt>
      <trkpt lat="45.52966" lon="4.9934">
        <ele>327.032227</ele>
        <time>2017-01-07T13:40:55Z</time>
      </trkpt>
      <trkpt lat="45.52939" lon="4.99328">
        <ele>325.578735</ele>
        <time>2017-01-07T13:40:59Z</time>
      </trkpt>
      <trkpt lat="45.52899" lon="4.99322">
        <ele>326.037994</ele>
        <time>2017-01-07T13:41:04Z</time>
      </trkpt>
      <trkpt lat="45.52881" lon="4.99317">
        <ele>325.941681</ele>
        <time>2017-01-07T13:41:06Z</time>
      </trkpt>
      <trkpt lat="45.52855" lon="4.99298">
        <ele>323.98999</ele>
        <time>2017-01-07T13:41:09Z</time>
      </trkpt>
      <trkpt lat="45.52813" lon="4.99258">
        <ele>320.2099</ele>
        <time>2017-01-07T13:41:14Z</time>
      </trkpt>
      <trkpt lat="45.52796" lon="4.99244">
        <ele>318.473907</ele>
        <time>2017-01-07T13:41:16Z</time>
      </trkpt>
      <trkpt lat="45.52778" lon="4.99233">
        <ele>316.860138</ele>
        <time>2017-01-07T13:41:18Z</time>
      </trkpt>
      <trkpt lat="45.527" lon="4.992">
        <ele>311.514954</ele>
        <time>2017-01-07T13:41:27Z</time>
      </trkpt>
      <trkpt lat="45.52683" lon="4.99191">
        <ele>310.308075</ele>
        <time>2017-01-07T13:41:31Z</time>
      </trkpt>
      <trkpt lat="45.52677" lon="4.99191">
        <ele>309.983917</ele>
        <time>2017-01-07T13:41:33Z</time>
      </trkpt>
      <trkpt lat="45.52675" lon="4.99197">
        <ele>310.126404</ele>
        <time>2017-01-07T13:41:35Z</time>
      </trkpt>
      <trkpt lat="45.52674" lon="4.99263">
        <ele>312.112183</ele>
        <time>2017-01-07T13:41:48Z</time>
      </trkpt>
      <trkpt lat="45.52664" lon="4.99407">
        <ele>314.542847</ele>
        <time>2017-01-07T13:42:16Z</time>
      </trkpt>
      <trkpt lat="45.5266" lon="4.99486">
        <ele>313.929565</ele>
        <time>2017-01-07T13:42:29Z</time>
      </trkpt>
      <trkpt lat="45.52653" lon="4.99544">
        <ele>313.411407</ele>
        <time>2017-01-07T13:42:39Z</time>
      </trkpt>
      <trkpt lat="45.52655" lon="4.99555">
        <ele>314.088013</ele>
        <time>2017-01-07T13:42:41Z</time>
      </trkpt>
      <trkpt lat="45.52659" lon="4.99566">
        <ele>314.946533</ele>
        <time>2017-01-07T13:42:43Z</time>
      </trkpt>
      <trkpt lat="45.52671" lon="4.99579">
        <ele>316.537506</ele>
        <time>2017-01-07T13:42:47Z</time>
      </trkpt>
      <trkpt lat="45.52674" lon="4.9959">
        <ele>316.797211</ele>
        <time>2017-01-07T13:42:49Z</time>
      </trkpt>
      <trkpt lat="45.52672" lon="4.99599">
        <ele>316.563873</ele>
        <time>2017-01-07T13:42:51Z</time>
      </trkpt>
      <trkpt lat="45.52628" lon="4.9966">
        <ele>318.504639</ele>
        <time>2017-01-07T13:43:06Z</time>
      </trkpt>
      <trkpt lat="45.52609" lon="4.99682">
        <ele>320.480011</ele>
        <time>2017-01-07T13:43:13Z</time>
      </trkpt>
      <trkpt lat="45.52598" lon="4.99701">
        <ele>321.972504</ele>
        <time>2017-01-07T13:43:19Z</time>
      </trkpt>
      <trkpt lat="45.52592" lon="4.997">
        <ele>322.032501</ele>
        <time>2017-01-07T13:43:22Z</time>
      </trkpt>
      <trkpt lat="45.52539" lon="4.99624">
        <ele>316.884125</ele>
        <time>2017-01-07T13:43:36Z</time>
      </trkpt>
      <trkpt lat="45.52505" lon="4.99568">
        <ele>312.63501</ele>
        <time>2017-01-07T13:43:42Z</time>
      </trkpt>
      <trkpt lat="45.52442" lon="4.99448">
        <ele>306.769226</ele>
        <time>2017-01-07T13:43:54Z</time>
      </trkpt>
      <trkpt lat="45.52425" lon="4.99422">
        <ele>306.731201</ele>
        <time>2017-01-07T13:43:57Z</time>
      </trkpt>
      <trkpt lat="45.5237" lon="4.99359">
        <ele>306.740021</ele>
        <time>2017-01-07T13:44:06Z</time>
      </trkpt>
      <trkpt lat="45.5236" lon="4.99352">
        <ele>306.419037</ele>
        <time>2017-01-07T13:44:08Z</time>
      </trkpt>
      <trkpt lat="45.52355" lon="4.99353">
        <ele>306.396301</ele>
        <time>2017-01-07T13:44:09Z</time>
      </trkpt>
      <trkpt lat="45.52352" lon="4.99357">
        <ele>306.515778</ele>
        <time>2017-01-07T13:44:10Z</time>
      </trkpt>
      <trkpt lat="45.52349" lon="4.9937">
        <ele>306.948822</ele>
        <time>2017-01-07T13:44:12Z</time>
      </trkpt>
      <trkpt lat="45.52337" lon="4.99468">
        <ele>310.6875</ele>
        <time>2017-01-07T13:44:31Z</time>
      </trkpt>
      <trkpt lat="45.52321" lon="4.99561">
        <ele>314.21756</ele>
        <time>2017-01-07T13:44:51Z</time>
      </trkpt>
      <trkpt lat="45.52314" lon="4.99571">
        <ele>314.162506</ele>
        <time>2017-01-07T13:44:54Z</time>
      </trkpt>
      <trkpt lat="45.52283" lon="4.99578">
        <ele>312.355011</ele>
        <time>2017-01-07T13:45:01Z</time>
      </trkpt>
      <trkpt lat="45.52195" lon="4.99585">
        <ele>305.923859</ele>
        <time>2017-01-07T13:45:14Z</time>
      </trkpt>
      <trkpt lat="45.52172" lon="4.99579">
        <ele>304.144989</ele>
        <time>2017-01-07T13:45:17Z</time>
      </trkpt>
      <trkpt lat="45.52117" lon="4.99545">
        <ele>298.671143</ele>
        <time>2017-01-07T13:45:24Z</time>
      </trkpt>
      <trkpt lat="45.52091" lon="4.99533">
        <ele>295.560394</ele>
        <time>2017-01-07T13:45:27Z</time>
      </trkpt>
      <trkpt lat="45.52047" lon="4.99518">
        <ele>290.642426</ele>
        <time>2017-01-07T13:45:32Z</time>
      </trkpt>
      <trkpt lat="45.52032" lon="4.99507">
        <ele>288.469513</ele>
        <time>2017-01-07T13:45:34Z</time>
      </trkpt>
      <trkpt lat="45.52019" lon="4.99491">
        <ele>286.658447</ele>
        <time>2017-01-07T13:45:36Z</time>
      </trkpt>
      <trkpt lat="45.52005" lon="4.99482">
        <ele>284.91684</ele>
        <time>2017-01-07T13:45:38Z</time>
      </trkpt>
      <trkpt lat="45.51972" lon="4.99478">
        <ele>281.468658</ele>
        <time>2017-01-07T13:45:42Z</time>
      </trkpt>
      <trkpt lat="45.51955" lon="4.99485">
        <ele>279.098755</ele>
        <time>2017-01-07T13:45:44Z</time>
      </trkpt>
      <trkpt lat="45.51832" lon="4.99587">
        <ele>257.092621</ele>
        <time>2017-01-07T13:46:00Z</time>
      </trkpt>
      <trkpt lat="45.51826" lon="4.9959">
        <ele>256.899109</ele>
        <time>2017-01-07T13:46:01Z</time>
      </trkpt>
      <trkpt lat="45.51811" lon="4.9959">
        <ele>256.988037</ele>
        <time>2017-01-07T13:46:04Z</time>
      </trkpt>
      <trkpt lat="45.51808" lon="4.99592">
        <ele>257.089752</ele>
        <time>2017-01-07T13:46:05Z</time>
      </trkpt>
      <trkpt lat="45.51779" lon="4.99633">
        <ele>259.407196</ele>
        <time>2017-01-07T13:46:22Z</time>
      </trkpt>
      <trkpt lat="45.51773" lon="4.99639">
        <ele>260.363312</ele>
        <time>2017-01-07T13:46:25Z</time>
      </trkpt>
      <trkpt lat="45.5175" lon="4.99648">
        <ele>260.637207</ele>
        <time>2017-01-07T13:46:33Z</time>
      </trkpt>
      <trkpt lat="45.51736" lon="4.99655">
        <ele>260.705994</ele>
        <time>2017-01-07T13:46:37Z</time>
      </trkpt>
      <trkpt lat="45.51687" lon="4.99694">
        <ele>259.594727</ele>
        <time>2017-01-07T13:46:52Z</time>
      </trkpt>
      <trkpt lat="45.51661" lon="4.99708">
        <ele>259.142303</ele>
        <time>2017-01-07T13:46:59Z</time>
      </trkpt>
      <trkpt lat="45.5165" lon="4.99718">
        <ele>258.53775</ele>
        <time>2017-01-07T13:47:02Z</time>
      </trkpt>
      <trkpt lat="45.51618" lon="4.99761">
        <ele>257.020386</ele>
        <time>2017-01-07T13:47:12Z</time>
      </trkpt>
      <trkpt lat="45.51607" lon="4.99784">
        <ele>256.506989</ele>
        <time>2017-01-07T13:47:15Z</time>
      </trkpt>
      <trkpt lat="45.51598" lon="4.99811">
        <ele>255.392471</ele>
        <time>2017-01-07T13:47:18Z</time>
      </trkpt>
      <trkpt lat="45.51595" lon="4.99828">
        <ele>254.8918</ele>
        <time>2017-01-07T13:47:20Z</time>
      </trkpt>
      <trkpt lat="45.51592" lon="4.99866">
        <ele>254.931671</ele>
        <time>2017-01-07T13:47:25Z</time>
      </trkpt>
      <trkpt lat="45.51582" lon="4.99945">
        <ele>257.95108</ele>
        <time>2017-01-07T13:47:37Z</time>
      </trkpt>
      <trkpt lat="45.51572" lon="4.99983">
        <ele>257.310699</ele>
        <time>2017-01-07T13:47:43Z</time>
      </trkpt>
      <trkpt lat="45.51553" lon="5.00048">
        <ele>255.381866</ele>
        <time>2017-01-07T13:47:55Z</time>
      </trkpt>
      <trkpt lat="45.51544" lon="5.00106">
        <ele>255.0625</ele>
        <time>2017-01-07T13:48:06Z</time>
      </trkpt>
      <trkpt lat="45.51525" lon="5.00179">
        <ele>254.42276</ele>
        <time>2017-01-07T13:48:19Z</time>
      </trkpt>
      <trkpt lat="45.51486" lon="5.003">
        <ele>252.530151</ele>
        <time>2017-01-07T13:48:34Z</time>
      </trkpt>
      <trkpt lat="45.5146" lon="5.00409">
        <ele>253.229996</ele>
        <time>2017-01-07T13:48:49Z</time>
      </trkpt>
      <trkpt lat="45.51452" lon="5.0046">
        <ele>253.430008</ele>
        <time>2017-01-07T13:48:56Z</time>
      </trkpt>
      <trkpt lat="45.51437" lon="5.00511">
        <ele>252.981445</ele>
        <time>2017-01-07T13:49:04Z</time>
      </trkpt>
      <trkpt lat="45.51433" lon="5.00536">
        <ele>253.50386</ele>
        <time>2017-01-07T13:49:08Z</time>
      </trkpt>
      <trkpt lat="45.51433" lon="5.00633">
        <ele>257.400757</ele>
        <time>2017-01-07T13:49:24Z</time>
      </trkpt>
      <trkpt lat="45.51423" lon="5.00726">
        <ele>260.041687</ele>
        <time>2017-01-07T13:49:40Z</time>
      </trkpt>
      <trkpt lat="45.51419" lon="5.00744">
        <ele>260.073273</ele>
        <time>2017-01-07T13:49:43Z</time>
      </trkpt>
      <trkpt lat="45.51408" lon="5.00768">
        <ele>258.522766</ele>
        <time>2017-01-07T13:49:47Z</time>
      </trkpt>
      <trkpt lat="45.5139" lon="5.00793">
        <ele>254.670502</ele>
        <time>2017-01-07T13:49:52Z</time>
      </trkpt>
      <trkpt lat="45.51383" lon="5.0081">
        <ele>254.392502</ele>
        <time>2017-01-07T13:49:55Z</time>
      </trkpt>
      <trkpt lat="45.51381" lon="5.00822">
        <ele>254.448746</ele>
        <time>2017-01-07T13:49:57Z</time>
      </trkpt>
      <trkpt lat="45.5138" lon="5.00862">
        <ele>256.744049</ele>
        <time>2017-01-07T13:50:05Z</time>
      </trkpt>
      <trkpt lat="45.51377" lon="5.00867">
        <ele>256.879272</ele>
        <time>2017-01-07T13:50:07Z</time>
      </trkpt>
      <trkpt lat="45.51369" lon="5.00871">
        <ele>256.479156</ele>
        <time>2017-01-07T13:50:10Z</time>
      </trkpt>
      <trkpt lat="45.51353" lon="5.00871">
        <ele>255.10849</ele>
        <time>2017-01-07T13:50:14Z</time>
      </trkpt>
      <trkpt lat="45.51266" lon="5.00853">
        <ele>254.282501</ele>
        <time>2017-01-07T13:50:30Z</time>
      </trkpt>
      <trkpt lat="45.51243" lon="5.00856">
        <ele>254.703552</ele>
        <time>2017-01-07T13:50:34Z</time>
      </trkpt>
      <trkpt lat="45.51228" lon="5.00866">
        <ele>254.902176</ele>
        <time>2017-01-07T13:50:37Z</time>
      </trkpt>
      <trkpt lat="45.51212" lon="5.00901">
        <ele>255</ele>
        <time>2017-01-07T13:50:44Z</time>
      </trkpt>
      <trkpt lat="45.51201" lon="5.00908">
        <ele>255.057816</ele>
        <time>2017-01-07T13:50:47Z</time>
      </trkpt>
      <trkpt lat="45.51183" lon="5.00912">
        <ele>255.283493</ele>
        <time>2017-01-07T13:50:51Z</time>
      </trkpt>
      <trkpt lat="45.51133" lon="5.00914">
        <ele>255.615005</ele>
        <time>2017-01-07T13:51:04Z</time>
      </trkpt>
      <trkpt lat="45.51128" lon="5.0091">
        <ele>255.548752</ele>
        <time>2017-01-07T13:51:06Z</time>
      </trkpt>
      <trkpt lat="45.51126" lon="5.00894">
        <ele>255.297501</ele>
        <time>2017-01-07T13:51:09Z</time>
      </trkpt>
      <trkpt lat="45.51124" lon="5.00899">
        <ele>255.376251</ele>
        <time>2017-01-07T13:52:09Z</time>
      </trkpt>
      <trkpt lat="45.51135" lon="5.00993">
        <ele>256</ele>
        <time>2017-01-07T13:52:25Z</time>
      </trkpt>
      <trkpt lat="45.51141" lon="5.01075">
        <ele>257.123749</ele>
        <time>2017-01-07T13:52:39Z</time>
      </trkpt>
      <trkpt lat="45.51142" lon="5.01177">
        <ele>258</ele>
        <time>2017-01-07T13:52:56Z</time>
      </trkpt>
      <trkpt lat="45.51145" lon="5.01226">
        <ele>258</ele>
        <time>2017-01-07T13:53:04Z</time>
      </trkpt>
      <trkpt lat="45.51144" lon="5.01239">
        <ele>258</ele>
        <time>2017-01-07T11:57:44Z</time>
      </trkpt>
      <trkpt lat="45.51081" lon="5.01237">
        <ele>258</ele>
        <time>2017-01-04T03:42:21Z</time>
      </trkpt>
      <trkpt lat="45.51032" lon="5.01228">
        <ele>258</ele>
        <time>2016-07-25T22:16:02Z</time>
      </trkpt>
      <trkpt lat="45.50934" lon="5.01215">
        <ele>258</ele>
        <time>2017-01-07T13:55:56Z</time>
      </trkpt>
      <trkpt lat="45.50889" lon="5.01211">
        <ele>258</ele>
        <time>2017-01-07T13:55:59Z</time>
      </trkpt>
      <trkpt lat="45.50834" lon="5.012">
        <ele>258.137512</ele>
        <time>2017-01-07T13:56:12Z</time>
      </trkpt>
      <trkpt lat="45.50819" lon="5.0118">
        <ele>258.466919</ele>
        <time>2017-01-07T13:56:16Z</time>
      </trkpt>
      <trkpt lat="45.50811" lon="5.01203">
        <ele>258.632507</ele>
        <time>2017-01-07T13:56:20Z</time>
      </trkpt>
      <trkpt lat="45.5076" lon="5.01428">
        <ele>260.308807</ele>
        <time>2017-01-07T13:56:30Z</time>
      </trkpt>
      <trkpt lat="45.50759" lon="5.01456">
        <ele>260.696259</ele>
        <time>2017-01-07T13:56:32Z</time>
      </trkpt>
      <trkpt lat="45.50752" lon="5.01465">
        <ele>260.688751</ele>
        <time>2017-01-07T13:56:34Z</time>
      </trkpt>
      <trkpt lat="45.50728" lon="5.01542">
        <ele>263.557312</ele>
        <time>2017-01-07T13:56:37Z</time>
      </trkpt>
      <trkpt lat="45.50724" lon="5.01566">
        <ele>264.577515</ele>
        <time>2017-01-07T13:56:42Z</time>
      </trkpt>
      <trkpt lat="45.50723" lon="5.0159">
        <ele>265.367493</ele>
        <time>2017-01-07T13:56:44Z</time>
      </trkpt>
      <trkpt lat="45.50724" lon="5.01652">
        <ele>267.085602</ele>
        <time>2017-01-07T13:56:50Z</time>
      </trkpt>
      <trkpt lat="45.50723" lon="5.01664">
        <ele>267.395264</ele>
        <time>2017-01-07T13:56:54Z</time>
      </trkpt>
      <trkpt lat="45.50719" lon="5.01674">
        <ele>267.673309</ele>
        <time>2017-01-07T13:56:58Z</time>
      </trkpt>
      <trkpt lat="45.50707" lon="5.01685">
        <ele>267.958984</ele>
        <time>2017-01-07T13:57:00Z</time>
      </trkpt>
      <trkpt lat="45.50683" lon="5.01698">
        <ele>268.196259</ele>
        <time>2017-01-07T13:57:02Z</time>
      </trkpt>
      <trkpt lat="45.50674" lon="5.01701">
        <ele>268.248749</ele>
        <time>2017-01-07T13:57:05Z</time>
      </trkpt>
      <trkpt lat="45.50643" lon="5.01702">
        <ele>268.286255</ele>
        <time>2017-01-07T13:57:07Z</time>
      </trkpt>
      <trkpt lat="45.50625" lon="5.01714">
        <ele>268.488739</ele>
        <time>2017-01-07T13:57:09Z</time>
      </trkpt>
      <trkpt lat="45.5061" lon="5.01733">
        <ele>268.793762</ele>
        <time>2017-01-07T13:57:14Z</time>
      </trkpt>
      <trkpt lat="45.50605" lon="5.01744">
        <ele>268.97876</ele>
        <time>2017-01-07T13:57:17Z</time>
      </trkpt>
      <trkpt lat="45.50602" lon="5.01758">
        <ele>269</ele>
        <time>2017-01-07T13:57:21Z</time>
      </trkpt>
      <trkpt lat="45.50599" lon="5.01779">
        <ele>268.959991</ele>
        <time>2017-01-07T13:57:25Z</time>
      </trkpt>
      <trkpt lat="45.50595" lon="5.0179">
        <ele>268.869995</ele>
        <time>2017-01-07T13:57:30Z</time>
      </trkpt>
      <trkpt lat="45.50588" lon="5.01798">
        <ele>268.714996</ele>
        <time>2017-01-07T13:57:40Z</time>
      </trkpt>
      <trkpt lat="45.50567" lon="5.01814">
        <ele>268.357513</ele>
        <time>2017-01-07T13:57:45Z</time>
      </trkpt>
      <trkpt lat="45.50553" lon="5.01821">
        <ele>268.208374</ele>
        <time>2017-01-07T13:57:56Z</time>
      </trkpt>
      <trkpt lat="45.50533" lon="5.01827">
        <ele>268.166718</ele>
        <time>2017-01-07T13:57:59Z</time>
      </trkpt>
      <trkpt lat="45.50512" lon="5.01829">
        <ele>268.02243</ele>
        <time>2017-01-07T13:58:03Z</time>
      </trkpt>
      <trkpt lat="45.50487" lon="5.01828">
        <ele>267.487488</ele>
        <time>2017-01-07T13:58:11Z</time>
      </trkpt>
      <trkpt lat="45.50434" lon="5.0182">
        <ele>266.315002</ele>
        <time>2017-01-07T13:58:18Z</time>
      </trkpt>
      <trkpt lat="45.50407" lon="5.0182">
        <ele>266</ele>
        <time>2017-01-07T13:58:22Z</time>
      </trkpt>
      <trkpt lat="45.50353" lon="5.01841">
        <ele>266.156403</ele>
        <time>2017-01-07T13:58:24Z</time>
      </trkpt>
      <trkpt lat="45.50341" lon="5.01854">
        <ele>266.07547</ele>
        <time>2017-01-07T13:58:31Z</time>
      </trkpt>
      <trkpt lat="45.5033" lon="5.01878">
        <ele>266</ele>
        <time>2017-01-07T13:58:44Z</time>
      </trkpt>
      <trkpt lat="45.50309" lon="5.01932">
        <ele>266.474304</ele>
        <time>2017-01-07T13:58:46Z</time>
      </trkpt>
      <trkpt lat="45.50288" lon="5.01972">
        <ele>266.967377</ele>
        <time>2017-01-07T13:58:49Z</time>
      </trkpt>
      <trkpt lat="45.50272" lon="5.01991">
        <ele>267.257385</ele>
        <time>2017-01-07T13:58:51Z</time>
      </trkpt>
      <trkpt lat="45.50262" lon="5.01997">
        <ele>267.515472</ele>
        <time>2017-01-07T13:59:06Z</time>
      </trkpt>
      <trkpt lat="45.50226" lon="5.0201">
        <ele>268</ele>
        <time>2017-01-07T14:01:05Z</time>
      </trkpt>
      <trkpt lat="45.5017" lon="5.02053">
        <ele>268.504913</ele>
        <time>2017-01-07T14:03:29Z</time>
      </trkpt>
      <trkpt lat="45.50164" lon="5.02059">
        <ele>268.6716</ele>
        <time>2017-01-07T14:04:16Z</time>
      </trkpt>
      <trkpt lat="45.50159" lon="5.02072">
        <ele>268.808624</ele>
        <time>2017-01-07T14:04:27Z</time>
      </trkpt>
      <trkpt lat="45.50161" lon="5.02081">
        <ele>268.831238</ele>
        <time>2017-01-07T14:04:29Z</time>
      </trkpt>
      <trkpt lat="45.5019" lon="5.02114">
        <ele>269</ele>
        <time>2017-01-07T14:04:30Z</time>
      </trkpt>
      <trkpt lat="45.50198" lon="5.02119">
        <ele>269</ele>
        <time>2017-01-07T14:04:32Z</time>
      </trkpt>
      <trkpt lat="45.50193" lon="5.02117">
        <ele>269</ele>
        <time>2017-01-07T14:04:34Z</time>
      </trkpt>
      <trkpt lat="45.50192" lon="5.0211">
        <ele>269</ele>
        <time>2017-01-07T14:04:48Z</time>
      </trkpt>
      <trkpt lat="45.50162" lon="5.0208">
        <ele>268.817535</ele>
        <time>2017-01-07T14:04:55Z</time>
      </trkpt>
      <trkpt lat="45.50157" lon="5.02072">
        <ele>268.833038</ele>
        <time>2017-01-07T14:04:58Z</time>
      </trkpt>
      <trkpt lat="45.50157" lon="5.02068">
        <ele>268.825348</ele>
        <time>2017-01-07T14:05:03Z</time>
      </trkpt>
      <trkpt lat="45.50159" lon="5.0206">
        <ele>268.748322</ele>
        <time>2017-01-07T14:05:05Z</time>
      </trkpt>
      <trkpt lat="45.50165" lon="5.02053">
        <ele>268.602539</ele>
        <time>2017-01-07T14:05:08Z</time>
      </trkpt>
      <trkpt lat="45.50223" lon="5.02008">
        <ele>268</ele>
        <time>2017-01-07T14:05:13Z</time>
      </trkpt>
      <trkpt lat="45.50258" lon="5.01997">
        <ele>267.601471</ele>
        <time>2017-01-07T14:05:16Z</time>
      </trkpt>
      <trkpt lat="45.50271" lon="5.01988">
        <ele>267.265625</ele>
        <time>2017-01-07T14:05:19Z</time>
      </trkpt>
      <trkpt lat="45.50289" lon="5.01972">
        <ele>266.96283</ele>
        <time>2017-01-07T14:05:23Z</time>
      </trkpt>
      <trkpt lat="45.50292" lon="5.01967">
        <ele>266.929474</ele>
        <time>2017-01-07T14:05:34Z</time>
      </trkpt>
      <trkpt lat="45.5029" lon="5.01964">
        <ele>266.938995</ele>
        <time>2017-01-07T14:05:52Z</time>
      </trkpt>
      <trkpt lat="45.50286" lon="5.01976">
        <ele>266.982544</ele>
        <time>2017-01-07T14:05:56Z</time>
      </trkpt>
      <trkpt lat="45.5028" lon="5.01985">
        <ele>267.012268</ele>
        <time>2017-01-07T14:06:00Z</time>
      </trkpt>
      <trkpt lat="45.50272" lon="5.01993">
        <ele>267.275848</ele>
        <time>2017-01-07T14:06:02Z</time>
      </trkpt>
      <trkpt lat="45.5026" lon="5.02001">
        <ele>267.59729</ele>
        <time>2017-01-07T14:06:53Z</time>
      </trkpt>
      <trkpt lat="45.50223" lon="5.02012">
        <ele>268</ele>
        <time>2017-01-07T14:07:26Z</time>
      </trkpt>
      <trkpt lat="45.50171" lon="5.02053">
        <ele>268.471313</ele>
        <time>2017-01-07T14:07:38Z</time>
      </trkpt>
      <trkpt lat="45.50163" lon="5.02062">
        <ele>268.69632</ele>
        <time>2017-01-07T14:08:02Z</time>
      </trkpt>
      <trkpt lat="45.50159" lon="5.02073">
        <ele>268.812897</ele>
        <time>2017-01-07T14:08:13Z</time>
      </trkpt>
      <trkpt lat="45.5016" lon="5.02078">
        <ele>268.826569</ele>
        <time>2017-01-07T14:08:26Z</time>
      </trkpt>
      <trkpt lat="45.50313" lon="5.02251">
        <ele>269.232361</ele>
        <time>2017-01-07T14:08:30Z</time>
      </trkpt>
      <trkpt lat="45.50434" lon="5.02378">
        <ele>271.619995</ele>
        <time>2017-01-07T14:08:33Z</time>
      </trkpt>
      <trkpt lat="45.50479" lon="5.02419">
        <ele>273.241241</ele>
        <time>2017-01-07T14:08:36Z</time>
      </trkpt>
      <trkpt lat="45.50568" lon="5.02491">
        <ele>275.215271</ele>
        <time>2017-01-07T14:08:41Z</time>
      </trkpt>
      <trkpt lat="45.50607" lon="5.0252">
        <ele>275.041931</ele>
        <time>2017-01-07T14:09:06Z</time>
      </trkpt>
      <trkpt lat="45.50644" lon="5.02567">
        <ele>275.070251</ele>
        <time>2017-01-07T14:09:33Z</time>
      </trkpt>
      <trkpt lat="45.50653" lon="5.02583">
        <ele>275.125885</ele>
        <time>2017-01-07T14:09:36Z</time>
      </trkpt>
      <trkpt lat="45.50658" lon="5.02596">
        <ele>275.660278</ele>
        <time>2017-01-07T14:09:39Z</time>
      </trkpt>
      <trkpt lat="45.5066" lon="5.02609">
        <ele>276.244324</ele>
        <time>2017-01-07T14:09:41Z</time>
      </trkpt>
      <trkpt lat="45.5066" lon="5.02632">
        <ele>277.214905</ele>
        <time>2017-01-07T14:09:46Z</time>
      </trkpt>
      <trkpt lat="45.50638" lon="5.02728">
        <ele>282.46344</ele>
        <time>2017-01-07T14:27:53Z</time>
      </trkpt>
      <trkpt lat="45.5062" lon="5.02819">
        <ele>286.484985</ele>
        <time>2017-01-07T14:28:31Z</time>
      </trkpt>
      <trkpt lat="45.50619" lon="5.0283">
        <ele>286.804993</ele>
        <time>2017-01-07T14:28:39Z</time>
      </trkpt>
      <trkpt lat="45.50621" lon="5.02841">
        <ele>287.195007</ele>
        <time>2017-01-07T14:28:43Z</time>
      </trkpt>
      <trkpt lat="45.50623" lon="5.02847">
        <ele>287.56485</ele>
        <time>2017-01-07T14:28:57Z</time>
      </trkpt>
      <trkpt lat="45.50636" lon="5.02857">
        <ele>288.584839</ele>
        <time>2017-01-07T14:29:11Z</time>
      </trkpt>
      <trkpt lat="45.50666" lon="5.02868">
        <ele>290.8</ele>
        <time>2017-01-07T14:29:21Z</time>
      </trkpt>
      <trkpt lat="45.50673" lon="5.029">
        <ele>294</ele>
        <time>2017-01-07T14:29:32Z</time>
      </trkpt>
      <trkpt lat="45.50657" lon="5.02964">
        <ele>290.3</ele>
        <time>2017-01-07T14:29:47Z</time>
      </trkpt>
      <trkpt lat="45.50635" lon="5.03016">
        <ele>290.7</ele>
        <time>2017-01-07T14:29:52Z</time>
      </trkpt>
      <trkpt lat="45.5064" lon="5.03073">
        <ele>291.5</ele>
        <time>2017-01-07T14:29:59Z</time>
      </trkpt>
      <trkpt lat="45.50643" lon="5.03117">
        <ele>298</ele>
        <time>2017-01-07T14:30:09Z</time>
      </trkpt>
      <trkpt lat="45.50666" lon="5.03161">
        <ele>303</ele>
        <time>2017-01-07T14:30:21Z</time>
      </trkpt>
      <trkpt lat="45.50636" lon="5.03203">
        <ele>310.1</ele>
        <time>2017-01-07T14:30:34Z</time>
      </trkpt>
      <trkpt lat="45.50616" lon="5.03216">
        <ele>311.5</ele>
        <time>2017-01-07T14:30:47Z</time>
      </trkpt>
      <trkpt lat="45.50597" lon="5.03243">
        <ele>315.3</ele>
        <time>2017-01-07T14:30:58Z</time>
      </trkpt>
      <trkpt lat="45.50557" lon="5.03258">
        <ele>323</ele>
        <time>2017-01-07T14:31:01Z</time>
      </trkpt>
      <trkpt lat="45.50522" lon="5.0326">
        <ele>323.6</ele>
        <time>2017-01-07T14:31:03Z</time>
      </trkpt>
      <trkpt lat="45.50491" lon="5.03285">
        <ele>327.1</ele>
        <time>2017-01-07T14:31:07Z</time>
      </trkpt>
      <trkpt lat="45.50448" lon="5.03299">
        <ele>329</ele>
        <time>2017-01-07T14:31:11Z</time>
      </trkpt>
      <trkpt lat="45.50419" lon="5.03332">
        <ele>335.2</ele>
        <time>2017-01-07T14:31:16Z</time>
      </trkpt>
      <trkpt lat="45.50341" lon="5.03317">
        <ele>340.6</ele>
        <time>2017-01-07T14:31:32Z</time>
      </trkpt>
      <trkpt lat="45.50289" lon="5.03391">
        <ele>350.2</ele>
        <time>2017-01-07T14:31:39Z</time>
      </trkpt>
      <trkpt lat="45.50332" lon="5.03447">
        <ele>353.2</ele>
        <time>2017-01-07T14:33:16Z</time>
      </trkpt>
      <trkpt lat="45.50363" lon="5.0347">
        <ele>356.7</ele>
        <time>2017-01-07T14:33:31Z</time>
      </trkpt>
      <trkpt lat="45.50405" lon="5.03502">
        <ele>361.9</ele>
        <time>2017-01-07T14:33:46Z</time>
      </trkpt>
      <trkpt lat="45.50405" lon="5.03529">
        <ele>361.5</ele>
        <time>2017-01-07T14:33:56Z</time>
      </trkpt>
      <trkpt lat="45.50441" lon="5.03593">
        <ele>370</ele>
        <time>2017-01-07T14:34:10Z</time>
      </trkpt>
      <trkpt lat="45.5046" lon="5.03632">
        <ele>370.3</ele>
        <time>2017-01-07T14:34:23Z</time>
      </trkpt>
      <trkpt lat="45.50477" lon="5.03677">
        <ele>371.3</ele>
        <time>2017-01-07T14:34:34Z</time>
      </trkpt>
      <trkpt lat="45.50503" lon="5.03728">
        <ele>376.7</ele>
        <time>2017-01-07T14:35:11Z</time>
      </trkpt>
      <trkpt lat="45.50521" lon="5.03773">
        <ele>377.5</ele>
        <time>2017-01-07T14:35:27Z</time>
      </trkpt>
      <trkpt lat="45.50547" lon="5.03802">
        <ele>378.2</ele>
        <time>2017-01-07T14:35:30Z</time>
      </trkpt>
      <trkpt lat="45.50578" lon="5.03834">
        <ele>381.1</ele>
        <time>2017-01-07T14:35:38Z</time>
      </trkpt>
      <trkpt lat="45.50635" lon="5.03896">
        <ele>384.7</ele>
        <time>2017-01-07T14:35:42Z</time>
      </trkpt>
      <trkpt lat="45.50676" lon="5.03955">
        <ele>391.5</ele>
        <time>2017-01-07T14:36:05Z</time>
      </trkpt>
      <trkpt lat="45.50704" lon="5.04004">
        <ele>393.2</ele>
        <time>2017-01-07T14:36:10Z</time>
      </trkpt>
      <trkpt lat="45.50719" lon="5.04044">
        <ele>394.1</ele>
        <time>2017-01-07T14:36:18Z</time>
      </trkpt>
      <trkpt lat="45.50711" lon="5.04076">
        <ele>394.1</ele>
        <time>2017-01-07T14:36:29Z</time>
      </trkpt>
      <trkpt lat="45.50702" lon="5.04113">
        <ele>396.5</ele>
        <time>2017-01-07T14:36:35Z</time>
      </trkpt>
      <trkpt lat="45.50692" lon="5.04147">
        <ele>397.6</ele>
        <time>2017-01-07T14:36:44Z</time>
      </trkpt>
      <trkpt lat="45.50697" lon="5.04194">
        <ele>401.2</ele>
        <time>2017-01-07T14:36:51Z</time>
      </trkpt>
      <trkpt lat="45.50699" lon="5.04244">
        <ele>402.3</ele>
        <time>2017-01-07T14:36:57Z</time>
      </trkpt>
      <trkpt lat="45.50704" lon="5.04303">
        <ele>406.4</ele>
        <time>2017-01-07T14:37:07Z</time>
      </trkpt>
      <trkpt lat="45.50573" lon="5.04331">
        <ele>395.9</ele>
        <time>2017-01-07T14:37:15Z</time>
      </trkpt>
      <trkpt lat="45.50568" lon="5.04372">
        <ele>394.6</ele>
        <time>2017-01-07T14:37:22Z</time>
      </trkpt>
      <trkpt lat="45.50568" lon="5.04425">
        <ele>395.5</ele>
        <time>2017-01-07T14:37:28Z</time>
      </trkpt>
      <trkpt lat="45.50546" lon="5.04442">
        <ele>393.1</ele>
        <time>2017-01-07T14:37:32Z</time>
      </trkpt>
      <trkpt lat="45.50529" lon="5.04519">
        <ele>389.7</ele>
        <time>2017-01-07T14:37:37Z</time>
      </trkpt>
      <trkpt lat="45.50514" lon="5.04603">
        <ele>384.5</ele>
        <time>2017-01-07T14:37:46Z</time>
      </trkpt>
      <trkpt lat="45.50529" lon="5.04655">
        <ele>385.3</ele>
        <time>2017-01-07T14:37:55Z</time>
      </trkpt>
      <trkpt lat="45.50573" lon="5.04697">
        <ele>382.7</ele>
        <time>2017-01-07T14:38:13Z</time>
      </trkpt>
      <trkpt lat="45.50624" lon="5.04707">
        <ele>389.9</ele>
        <time>2017-01-07T14:38:24Z</time>
      </trkpt>
      <trkpt lat="45.50665" lon="5.04704">
        <ele>392.1</ele>
        <time>2017-01-07T14:38:33Z</time>
      </trkpt>
      <trkpt lat="45.50707" lon="5.04756">
        <ele>387.9</ele>
        <time>2017-01-07T14:38:37Z</time>
      </trkpt>
      <trkpt lat="45.50741" lon="5.04808">
        <ele>389.7</ele>
        <time>2017-01-07T14:38:43Z</time>
      </trkpt>
      <trkpt lat="45.50788" lon="5.04864">
        <ele>404.3</ele>
        <time>2017-01-07T14:38:59Z</time>
      </trkpt>
      <trkpt lat="45.50822" lon="5.04892">
        <ele>407.6</ele>
        <time>2017-01-07T14:39:19Z</time>
      </trkpt>
      <trkpt lat="45.50866" lon="5.04934">
        <ele>413.6</ele>
        <time>2017-01-07T14:39:29Z</time>
      </trkpt>
      <trkpt lat="45.509" lon="5.04975">
        <ele>414.2</ele>
        <time>2017-01-07T14:39:42Z</time>
      </trkpt>
      <trkpt lat="45.50959" lon="5.05066">
        <ele>412.9</ele>
        <time>2017-01-07T14:39:46Z</time>
      </trkpt>
      <trkpt lat="45.51071" lon="5.05125">
        <ele>401.1</ele>
        <time>2017-01-07T14:39:49Z</time>
      </trkpt>
      <trkpt lat="45.51093" lon="5.05118">
        <ele>394.6</ele>
        <time>2017-01-07T14:39:54Z</time>
      </trkpt>
      <trkpt lat="45.5113" lon="5.05174">
        <ele>391.6</ele>
        <time>2017-01-07T14:39:58Z</time>
      </trkpt>
      <trkpt lat="45.51144" lon="5.05226">
        <ele>391.2</ele>
        <time>2017-01-07T14:40:46Z</time>
      </trkpt>
      <trkpt lat="45.51203" lon="5.05213">
        <ele>387.1</ele>
        <time>2017-01-07T14:40:54Z</time>
      </trkpt>
      <trkpt lat="45.51252" lon="5.05223">
        <ele>384.4</ele>
        <time>2017-01-07T14:41:04Z</time>
      </trkpt>
      <trkpt lat="45.51293" lon="5.05226">
        <ele>383.1</ele>
        <time>2017-01-07T14:41:09Z</time>
      </trkpt>
      <trkpt lat="45.51335" lon="5.05247">
        <ele>386.3</ele>
        <time>2017-01-07T14:41:22Z</time>
      </trkpt>
      <trkpt lat="45.51364" lon="5.05268">
        <ele>396.9</ele>
        <time>2017-01-07T14:41:47Z</time>
      </trkpt>
      <trkpt lat="45.51423" lon="5.0524">
        <ele>389.8</ele>
        <time>2017-01-07T14:41:55Z</time>
      </trkpt>
      <trkpt lat="45.51467" lon="5.0523">
        <ele>385.3</ele>
        <time>2017-01-07T14:42:07Z</time>
      </trkpt>
      <trkpt lat="45.51498" lon="5.05272">
        <ele>398</ele>
        <time>2017-01-07T14:42:24Z</time>
      </trkpt>
      <trkpt lat="45.51535" lon="5.05321">
        <ele>398.1</ele>
        <time>2017-01-07T14:42:31Z</time>
      </trkpt>
      <trkpt lat="45.51572" lon="5.05362">
        <ele>401.6</ele>
        <time>2017-01-07T14:43:01Z</time>
      </trkpt>
      <trkpt lat="45.51603" lon="5.0538">
        <ele>392.8</ele>
        <time>2017-01-07T14:43:06Z</time>
      </trkpt>
      <trkpt lat="45.51628" lon="5.0539">
        <ele>391.2</ele>
        <time>2017-01-07T14:43:19Z</time>
      </trkpt>
      <trkpt lat="45.5163" lon="5.0545">
        <ele>393.4</ele>
        <time>2017-01-07T14:43:31Z</time>
      </trkpt>
      <trkpt lat="45.5164" lon="5.05519">
        <ele>397.7</ele>
        <time>2017-01-07T14:43:37Z</time>
      </trkpt>
      <trkpt lat="45.51679" lon="5.05554">
        <ele>395.6</ele>
        <time>2017-01-07T14:43:45Z</time>
      </trkpt>
      <trkpt lat="45.51721" lon="5.05495">
        <ele>392.2</ele>
        <time>2017-01-07T14:44:20Z</time>
      </trkpt>
      <trkpt lat="45.5175" lon="5.05446">
        <ele>390.5</ele>
        <time>2017-01-07T14:44:38Z</time>
      </trkpt>
      <trkpt lat="45.51777" lon="5.05321">
        <ele>388.5</ele>
        <time>2017-01-07T14:44:46Z</time>
      </trkpt>
      <trkpt lat="45.51799" lon="5.05338">
        <ele>396.9</ele>
        <time>2017-01-07T14:45:00Z</time>
      </trkpt>
      <trkpt lat="45.51823" lon="5.0546">
        <ele>409.7</ele>
        <time>2017-01-07T14:45:05Z</time>
      </trkpt>
      <trkpt lat="45.5186" lon="5.05547">
        <ele>420.3</ele>
        <time>2017-01-07T14:45:37Z</time>
      </trkpt>
      <trkpt lat="45.5187" lon="5.05606">
        <ele>419.4</ele>
        <time>2017-01-07T14:47:13Z</time>
      </trkpt>
      <trkpt lat="45.51897" lon="5.05641">
        <ele>419.2</ele>
        <time>2017-01-07T14:47:20Z</time>
      </trkpt>
      <trkpt lat="45.51916" lon="5.05701">
        <ele>420.2</ele>
        <time>2017-01-07T14:47:26Z</time>
      </trkpt>
      <trkpt lat="45.5194" lon="5.05784">
        <ele>420.3</ele>
        <time>2017-01-07T14:47:30Z</time>
      </trkpt>
      <trkpt lat="45.51989" lon="5.05823">
        <ele>420</ele>
        <time>2017-01-07T14:48:17Z</time>
      </trkpt>
      <trkpt lat="45.52104" lon="5.05763">
        <ele>416.9</ele>
        <time>2017-01-07T14:48:34Z</time>
      </trkpt>
      <trkpt lat="45.52163" lon="5.05739">
        <ele>414.7</ele>
        <time>2017-01-07T14:48:45Z</time>
      </trkpt>
      <trkpt lat="45.52173" lon="5.05708">
        <ele>410.7</ele>
        <time>2017-01-07T14:48:50Z</time>
      </trkpt>
      <trkpt lat="45.52238" lon="5.05704">
        <ele>407.9</ele>
        <time>2017-01-07T14:48:53Z</time>
      </trkpt>
      <trkpt lat="45.52273" lon="5.05728">
        <ele>399.7</ele>
        <time>2017-01-07T14:48:59Z</time>
      </trkpt>
      <trkpt lat="45.52321" lon="5.05763">
        <ele>393.4</ele>
        <time>2017-01-07T14:49:02Z</time>
      </trkpt>
      <trkpt lat="45.52397" lon="5.05753">
        <ele>379.7</ele>
        <time>2017-01-07T14:49:08Z</time>
      </trkpt>
      <trkpt lat="45.52439" lon="5.05774">
        <ele>372.3</ele>
        <time>2017-01-07T14:49:14Z</time>
      </trkpt>
      <trkpt lat="45.52522" lon="5.05735">
        <ele>365.7</ele>
        <time>2017-01-07T14:49:18Z</time>
      </trkpt>
      <trkpt lat="45.52563" lon="5.05732">
        <ele>362.7</ele>
        <time>2017-01-07T14:49:20Z</time>
      </trkpt>
      <trkpt lat="45.52605" lon="5.0569">
        <ele>355.2</ele>
        <time>2017-01-07T14:49:24Z</time>
      </trkpt>
      <trkpt lat="45.52627" lon="5.0569">
        <ele>353.9</ele>
        <time>2017-01-07T14:49:28Z</time>
      </trkpt>
      <trkpt lat="45.52646" lon="5.05648">
        <ele>352.3</ele>
        <time>2017-01-07T14:49:43Z</time>
      </trkpt>
      <trkpt lat="45.52676" lon="5.05655">
        <ele>348.4</ele>
        <time>2017-01-07T14:49:45Z</time>
      </trkpt>
      <trkpt lat="45.52695" lon="5.05638">
        <ele>347</ele>
        <time>2017-01-07T14:49:47Z</time>
      </trkpt>
      <trkpt lat="45.52727" lon="5.05631">
        <ele>345.7</ele>
        <time>2017-01-07T14:49:49Z</time>
      </trkpt>
      <trkpt lat="45.52756" lon="5.05645">
        <ele>339.5</ele>
        <time>2017-01-07T14:49:59Z</time>
      </trkpt>
      <trkpt lat="45.52788" lon="5.05659">
        <ele>337.5</ele>
        <time>2017-01-07T14:50:01Z</time>
      </trkpt>
      <trkpt lat="45.52803" lon="5.05589">
        <ele>336.1</ele>
        <time>2017-01-07T14:50:05Z</time>
      </trkpt>
      <trkpt lat="45.52803" lon="5.05523">
        <ele>334.2</ele>
        <time>2017-01-07T14:50:09Z</time>
      </trkpt>
      <trkpt lat="45.52783" lon="5.0545">
        <ele>332.1</ele>
        <time>2017-01-07T14:50:17Z</time>
      </trkpt>
      <trkpt lat="45.52776" lon="5.05394">
        <ele>329.2</ele>
        <time>2017-01-07T14:51:01Z</time>
      </trkpt>
      <trkpt lat="45.52729" lon="5.05314">
        <ele>334.4</ele>
        <time>2017-01-07T14:51:03Z</time>
      </trkpt>
      <trkpt lat="45.52705" lon="5.05219">
        <ele>331.2</ele>
        <time>2017-01-07T14:51:05Z</time>
      </trkpt>
      <trkpt lat="45.52712" lon="5.0516">
        <ele>325.5</ele>
        <time>2017-01-07T14:51:15Z</time>
      </trkpt>
      <trkpt lat="45.52702" lon="5.05118">
        <ele>324.8</ele>
        <time>2017-01-07T14:51:20Z</time>
      </trkpt>
      <trkpt lat="45.5268" lon="5.05059">
        <ele>321.2</ele>
        <time>2017-01-07T14:51:28Z</time>
      </trkpt>
      <trkpt lat="45.52651" lon="5.05035">
        <ele>321.7</ele>
        <time>2017-01-07T14:51:45Z</time>
      </trkpt>
      <trkpt lat="45.52649" lon="5.04996">
        <ele>317</ele>
        <time>2017-01-07T14:52:01Z</time>
      </trkpt>
      <trkpt lat="45.5261" lon="5.04937">
        <ele>318.9</ele>
        <time>2017-01-07T14:52:08Z</time>
      </trkpt>
      <trkpt lat="45.52571" lon="5.04822">
        <ele>316.2</ele>
        <time>2017-01-07T14:52:16Z</time>
      </trkpt>
      <trkpt lat="45.52541" lon="5.04742">
        <ele>312</ele>
        <time>2017-01-07T14:52:32Z</time>
      </trkpt>
      <trkpt lat="45.52535" lon="5.04704">
        <ele>312</ele>
        <time>2017-01-07T14:52:35Z</time>
      </trkpt>
      <trkpt lat="45.52552" lon="5.04644">
        <ele>309</ele>
        <time>2017-01-07T14:52:42Z</time>
      </trkpt>
      <trkpt lat="45.52574" lon="5.04594">
        <ele>307.7</ele>
        <time>2017-01-07T14:52:46Z</time>
      </trkpt>
      <trkpt lat="45.52568" lon="5.04606">
        <ele>308</ele>
        <time>2017-01-07T14:52:58Z</time>
      </trkpt>
      <trkpt lat="45.5258" lon="5.04589">
        <ele>307</ele>
        <time>2017-01-07T14:53:14Z</time>
      </trkpt>
      <trkpt lat="45.52579" lon="5.04554">
        <ele>307</ele>
        <time>2017-01-07T14:53:23Z</time>
      </trkpt>
      <trkpt lat="45.52574" lon="5.04525">
        <ele>306</ele>
        <time>2017-01-07T13:08:25Z</time>
      </trkpt>
      <trkpt lat="45.5256" lon="5.04502">
        <ele>306.3</ele>
        <time>2017-01-07T13:08:27Z</time>
      </trkpt>
      <trkpt lat="45.52483" lon="5.04419">
        <ele>307.4</ele>
        <time>2017-01-07T13:08:50Z</time>
      </trkpt>
      <trkpt lat="45.52459" lon="5.04372">
        <ele>310.5</ele>
        <time>2017-01-07T13:08:56Z</time>
      </trkpt>
      <trkpt lat="45.5244" lon="5.04345">
        <ele>309.4</ele>
        <time>2017-01-07T13:09:00Z</time>
      </trkpt>
      <trkpt lat="45.52386" lon="5.0429">
        <ele>307.1</ele>
        <time>2017-01-07T13:09:03Z</time>
      </trkpt>
      <trkpt lat="45.52386" lon="5.04199">
        <ele>307.1</ele>
        <time>2017-01-07T13:09:08Z</time>
      </trkpt>
      <trkpt lat="45.52398" lon="5.04103">
        <ele>306.5</ele>
        <time>2017-01-07T13:09:14Z</time>
      </trkpt>
      <trkpt lat="45.52389" lon="5.04056">
        <ele>305.4</ele>
        <time>2017-01-07T13:09:18Z</time>
      </trkpt>
      <trkpt lat="45.52386" lon="5.04017">
        <ele>306</ele>
        <time>2017-01-07T13:09:20Z</time>
      </trkpt>
      <trkpt lat="45.52371" lon="5.03975">
        <ele>306.6</ele>
        <time>2017-01-07T13:09:22Z</time>
      </trkpt>
      <trkpt lat="45.5235" lon="5.03955">
        <ele>305.2</ele>
        <time>2017-01-07T13:09:26Z</time>
      </trkpt>
      <trkpt lat="45.52327" lon="5.03935">
        <ele>298</ele>
        <time>2017-01-07T13:09:28Z</time>
      </trkpt>
      <trkpt lat="45.52296" lon="5.03874">
        <ele>300.1</ele>
        <time>2017-01-07T13:09:30Z</time>
      </trkpt>
      <trkpt lat="45.52277" lon="5.03854">
        <ele>299.2</ele>
        <time>2017-01-07T13:09:35Z</time>
      </trkpt>
      <trkpt lat="45.52253" lon="5.03837">
        <ele>296.7</ele>
        <time>2017-01-07T13:09:38Z</time>
      </trkpt>
      <trkpt lat="45.52222" lon="5.0378">
        <ele>295.6</ele>
        <time>2017-01-07T13:09:40Z</time>
      </trkpt>
      <trkpt lat="45.52208" lon="5.03723">
        <ele>292</ele>
        <time>2017-01-07T13:09:42Z</time>
      </trkpt>
      <trkpt lat="45.52191" lon="5.03536">
        <ele>288</ele>
        <time>2017-01-07T13:09:44Z</time>
      </trkpt>
      <trkpt lat="45.52229" lon="5.03534">
        <ele>289.9</ele>
        <time>2017-01-07T13:09:49Z</time>
      </trkpt>
      <trkpt lat="45.52267" lon="5.03546">
        <ele>297.9</ele>
        <time>2017-01-07T13:09:51Z</time>
      </trkpt>
      <trkpt lat="45.52293" lon="5.03595">
        <ele>297.1</ele>
        <time>2017-01-07T13:09:53Z</time>
      </trkpt>
      <trkpt lat="45.52326" lon="5.03627">
        <ele>299.8</ele>
        <time>2017-01-07T13:09:54Z</time>
      </trkpt>
      <trkpt lat="45.52343" lon="5.03657">
        <ele>307.3</ele>
        <time>2017-01-07T13:09:57Z</time>
      </trkpt>
      <trkpt lat="45.52364" lon="5.03704">
        <ele>311.5</ele>
        <time>2017-01-07T13:09:59Z</time>
      </trkpt>
      <trkpt lat="45.52426" lon="5.03795">
        <ele>318.8</ele>
        <time>2017-01-07T13:10:01Z</time>
      </trkpt>
      <trkpt lat="45.52467" lon="5.03871">
        <ele>323.3</ele>
        <time>2017-01-07T13:10:05Z</time>
      </trkpt>
      <trkpt lat="45.52474" lon="5.03908">
        <ele>325.5</ele>
        <time>2017-01-07T13:10:07Z</time>
      </trkpt>
      <trkpt lat="45.52476" lon="5.03935">
        <ele>327</ele>
        <time>2017-01-07T13:10:09Z</time>
      </trkpt>
      <trkpt lat="45.52476" lon="5.0398">
        <ele>327.5</ele>
        <time>2017-01-07T13:10:18Z</time>
      </trkpt>
      <trkpt lat="45.52536" lon="5.04027">
        <ele>336.7</ele>
        <time>2017-01-07T13:10:22Z</time>
      </trkpt>
      <trkpt lat="45.52616" lon="5.04054">
        <ele>341.1</ele>
        <time>2017-01-07T13:10:30Z</time>
      </trkpt>
      <trkpt lat="45.52635" lon="5.04076">
        <ele>341.5</ele>
        <time>2017-01-07T13:10:38Z</time>
      </trkpt>
      <trkpt lat="45.52721" lon="5.04123">
        <ele>344.6</ele>
        <time>2017-01-07T13:10:43Z</time>
      </trkpt>
      <trkpt lat="45.52752" lon="5.04155">
        <ele>345.6</ele>
        <time>2017-01-07T13:10:50Z</time>
      </trkpt>
      <trkpt lat="45.52799" lon="5.0416">
        <ele>346.9</ele>
        <time>2017-01-07T13:11:08Z</time>
      </trkpt>
      <trkpt lat="45.52838" lon="5.04177">
        <ele>349.9</ele>
        <time>2017-01-07T13:11:24Z</time>
      </trkpt>
      <trkpt lat="45.52882" lon="5.0415">
        <ele>350.5</ele>
      </trkpt>
      <trkpt lat="45.52958" lon="5.04108">
        <ele>354.6</ele>
      </trkpt>
      <trkpt lat="45.53046" lon="5.04076">
        <ele>362</ele>
      </trkpt>
      <trkpt lat="45.53053" lon="5.04054">
        <ele>362.6</ele>
      </trkpt>
      <trkpt lat="45.53046" lon="5.04002">
        <ele>363.4</ele>
      </trkpt>
      <trkpt lat="45.53051" lon="5.0394">
        <ele>367.9</ele>
      </trkpt>
      <trkpt lat="45.53053" lon="5.03891">
        <ele>371</ele>
      </trkpt>
      <trkpt lat="45.53072" lon="5.03866">
        <ele>371.8</ele>
      </trkpt>
      <trkpt lat="45.53075" lon="5.03834">
        <ele>373.2</ele>
      </trkpt>
      <trkpt lat="45.53123" lon="5.03822">
        <ele>374.2</ele>
      </trkpt>
      <trkpt lat="45.53149" lon="5.03839">
        <ele>373.6</ele>
      </trkpt>
      <trkpt lat="45.53175" lon="5.03864">
        <ele>374.1</ele>
      </trkpt>
      <trkpt lat="45.53241" lon="5.03854">
        <ele>374.6</ele>
      </trkpt>
      <trkpt lat="45.53275" lon="5.03857">
        <ele>373.6</ele>
      </trkpt>
      <trkpt lat="45.53325" lon="5.03881">
        <ele>372.7</ele>
      </trkpt>
      <trkpt lat="45.53343" lon="5.03874">
        <ele>371.5</ele>
      </trkpt>
      <trkpt lat="45.534" lon="5.03817">
        <ele>371.7</ele>
      </trkpt>
      <trkpt lat="45.53434" lon="5.03876">
        <ele>371.5</ele>
      </trkpt>
      <trkpt lat="45.535" lon="5.03807">
        <ele>372.4</ele>
      </trkpt>
      <trkpt lat="45.53564" lon="5.03718">
        <ele>375</ele>
      </trkpt>
      <trkpt lat="45.53529" lon="5.03682">
        <ele>375.2</ele>
      </trkpt>
      <trkpt lat="45.53488" lon="5.03635">
        <ele>374.6</ele>
      </trkpt>
      <trkpt lat="45.5345" lon="5.03526">
        <ele>374.2</ele>
      </trkpt>
      <trkpt lat="45.53419" lon="5.0345">
        <ele>374.1</ele>
      </trkpt>
      <trkpt lat="45.53401" lon="5.03344">
        <ele>375.4</ele>
      </trkpt>
      <trkpt lat="45.53431" lon="5.03339">
        <ele>373.5</ele>
      </trkpt>
      <trkpt lat="45.5346" lon="5.03364">
        <ele>372.9</ele>
      </trkpt>
      <trkpt lat="45.53502" lon="5.03388">
        <ele>371.9</ele>
      </trkpt>
      <trkpt lat="45.53515" lon="5.03425">
        <ele>372.9</ele>
      </trkpt>
      <trkpt lat="45.53538" lon="5.0343">
        <ele>373.5</ele>
      </trkpt>
      <trkpt lat="45.53557" lon="5.03403">
        <ele>372.6</ele>
      </trkpt>
      <trkpt lat="45.53591" lon="5.03373">
        <ele>372.8</ele>
      </trkpt>
      <trkpt lat="45.53614" lon="5.03354">
        <ele>372.5</ele>
      </trkpt>
      <trkpt lat="45.53629" lon="5.03339">
        <ele>372.3</ele>
      </trkpt>
      <trkpt lat="45.53653" lon="5.03317">
        <ele>369</ele>
      </trkpt>
      <trkpt lat="45.53685" lon="5.03304">
        <ele>369.4</ele>
      </trkpt>
      <trkpt lat="45.5371" lon="5.03292">
        <ele>369.3</ele>
      </trkpt>
      <trkpt lat="45.53735" lon="5.03282">
        <ele>369.4</ele>
      </trkpt>
      <trkpt lat="45.53771" lon="5.03255">
        <ele>371.4</ele>
      </trkpt>
      <trkpt lat="45.53797" lon="5.0325">
        <ele>373.1</ele>
      </trkpt>
      <trkpt lat="45.53819" lon="5.03238">
        <ele>369.2</ele>
      </trkpt>
      <trkpt lat="45.53845" lon="5.03226">
        <ele>371.6</ele>
      </trkpt>
      <trkpt lat="45.53876" lon="5.03206">
        <ele>371.2</ele>
      </trkpt>
      <trkpt lat="45.53897" lon="5.03184">
        <ele>371.6</ele>
      </trkpt>
      <trkpt lat="45.53924" lon="5.03161">
        <ele>372.2</ele>
      </trkpt>
      <trkpt lat="45.53942" lon="5.03142">
        <ele>371.1</ele>
      </trkpt>
      <trkpt lat="45.53966" lon="5.03122">
        <ele>370.8</ele>
      </trkpt>
      <trkpt lat="45.53995" lon="5.0312">
        <ele>371.3</ele>
      </trkpt>
      <trkpt lat="45.54025" lon="5.03092">
        <ele>371.6</ele>
      </trkpt>
      <trkpt lat="45.54073" lon="5.03051">
        <ele>370.5</ele>
      </trkpt>
      <trkpt lat="45.54123" lon="5.03009">
        <ele>371</ele>
      </trkpt>
      <trkpt lat="45.54161" lon="5.02977">
        <ele>367.5</ele>
      </trkpt>
      <trkpt lat="45.54218" lon="5.0293">
        <ele>365.3</ele>
      </trkpt>
      <trkpt lat="45.54225" lon="5.02863">
        <ele>359.9</ele>
      </trkpt>
      <trkpt lat="45.54227" lon="5.0273">
        <ele>349.9</ele>
      </trkpt>
      <trkpt lat="45.54297" lon="5.02728">
        <ele>353.6</ele>
      </trkpt>
      <trkpt lat="45.54334" lon="5.02733">
        <ele>353.3</ele>
      </trkpt>
      <trkpt lat="45.54389" lon="5.02733">
        <ele>351.8</ele>
      </trkpt>
      <trkpt lat="45.54435" lon="5.02728">
        <ele>350.3</ele>
      </trkpt>
      <trkpt lat="45.54453" lon="5.02725">
        <ele>350</ele>
      </trkpt>
      <trkpt lat="45.54487" lon="5.02696">
        <ele>348.7</ele>
      </trkpt>
      <trkpt lat="45.54522" lon="5.02641">
        <ele>344.2</ele>
      </trkpt>
      <trkpt lat="45.54584" lon="5.02649">
        <ele>344.1</ele>
      </trkpt>
      <trkpt lat="45.54643" lon="5.02673">
        <ele>345.1</ele>
      </trkpt>
      <trkpt lat="45.54707" lon="5.02708">
        <ele>342.3</ele>
      </trkpt>
      <trkpt lat="45.54727" lon="5.02604">
        <ele>336.9</ele>
      </trkpt>
      <trkpt lat="45.54753" lon="5.02471">
        <ele>330.8</ele>
      </trkpt>
      <trkpt lat="45.54739" lon="5.02424">
        <ele>330.5</ele>
      </trkpt>
      <trkpt lat="45.54758" lon="5.02306">
        <ele>329.1</ele>
      </trkpt>
      <trkpt lat="45.54781" lon="5.02227">
        <ele>328.2</ele>
      </trkpt>
      <trkpt lat="45.54805" lon="5.02156">
        <ele>327.1</ele>
      </trkpt>
      <trkpt lat="45.54838" lon="5.02082">
        <ele>327.7</ele>
      </trkpt>
      <trkpt lat="45.5487" lon="5.02028">
        <ele>326.1</ele>
      </trkpt>
      <trkpt lat="45.54907" lon="5.01961">
        <ele>325.8</ele>
      </trkpt>
      <trkpt lat="45.54907" lon="5.01959">
        <ele>325.8</ele>
      </trkpt>
      <trkpt lat="45.54924" lon="5.01914">
        <ele>322.073883</ele>
      </trkpt>
      <trkpt lat="45.54921" lon="5.01905">
        <ele>322.09671</ele>
      </trkpt>
      <trkpt lat="45.54932" lon="5.01767">
        <ele>316.039124</ele>
      </trkpt>
      <trkpt lat="45.54934" lon="5.01714">
        <ele>312.853516</ele>
      </trkpt>
      <trkpt lat="45.5494" lon="5.01677">
        <ele>310.494904</ele>
      </trkpt>
      <trkpt lat="45.54951" lon="5.01651">
        <ele>309.023987</ele>
      </trkpt>
      <trkpt lat="45.54977" lon="5.01607">
        <ele>305.855835</ele>
      </trkpt>
      <trkpt lat="45.55015" lon="5.01553">
        <ele>299.839905</ele>
      </trkpt>
      <trkpt lat="45.5504" lon="5.01522">
        <ele>295.678406</ele>
      </trkpt>
      <trkpt lat="45.55047" lon="5.01506">
        <ele>294.047028</ele>
      </trkpt>
      <trkpt lat="45.55049" lon="5.01488">
        <ele>292.357086</ele>
      </trkpt>
      <trkpt lat="45.55046" lon="5.01453">
        <ele>288.971252</ele>
      </trkpt>
      <trkpt lat="45.55046" lon="5.01437">
        <ele>287.220367</ele>
      </trkpt>
      <trkpt lat="45.55048" lon="5.01424">
        <ele>285.7211</ele>
      </trkpt>
      <trkpt lat="45.55065" lon="5.01393">
        <ele>282.719391</ele>
      </trkpt>
      <trkpt lat="45.55071" lon="5.0137">
        <ele>279.186401</ele>
      </trkpt>
      <trkpt lat="45.55077" lon="5.01365">
        <ele>278.041931</ele>
      </trkpt>
      <trkpt lat="45.55089" lon="5.01366">
        <ele>277.769257</ele>
      </trkpt>
      <trkpt lat="45.55103" lon="5.01371">
        <ele>277.988617</ele>
      </trkpt>
      <trkpt lat="45.55137" lon="5.0139">
        <ele>274.827271</ele>
      </trkpt>
      <trkpt lat="45.55152" lon="5.01394">
        <ele>272.20929</ele>
      </trkpt>
      <trkpt lat="45.55166" lon="5.01391">
        <ele>269.515015</ele>
      </trkpt>
      <trkpt lat="45.55172" lon="5.01386">
        <ele>268.134216</ele>
      </trkpt>
      <trkpt lat="45.55187" lon="5.01365">
        <ele>264.540924</ele>
      </trkpt>
      <trkpt lat="45.55194" lon="5.01349">
        <ele>262.735199</ele>
      </trkpt>
      <trkpt lat="45.552" lon="5.01332">
        <ele>261.378418</ele>
      </trkpt>
      <trkpt lat="45.55206" lon="5.01298">
        <ele>263.744995</ele>
      </trkpt>
      <trkpt lat="45.5521" lon="5.01286">
        <ele>264.737518</ele>
      </trkpt>
      <trkpt lat="45.55216" lon="5.01278">
        <ele>265.200012</ele>
      </trkpt>
      <trkpt lat="45.55243" lon="5.01266">
        <ele>265.288452</ele>
      </trkpt>
      <trkpt lat="45.55249" lon="5.01258">
        <ele>265.710693</ele>
      </trkpt>
      <trkpt lat="45.55254" lon="5.01225">
        <ele>267.975647</ele>
      </trkpt>
      <trkpt lat="45.55262" lon="5.01192">
        <ele>268.812561</ele>
      </trkpt>
      <trkpt lat="45.55264" lon="5.01173">
        <ele>268.272003</ele>
      </trkpt>
      <trkpt lat="45.55261" lon="5.01134">
        <ele>267.992035</ele>
      </trkpt>
      <trkpt lat="45.55233" lon="5.01071">
        <ele>270.748138</ele>
      </trkpt>
      <trkpt lat="45.5521" lon="5.00992">
        <ele>270.575012</ele>
      </trkpt>
    </trkseg>
  </trk>
</gpx>